Volborg, MT (59351)

10:01 PM MDT on October 24, 2014 (GMT -0600)
Wiley | Change Station
CLOSE
Current Station
Airport
Location: Miles City,
Elevation: 2628 ft
Nearby Weather Stations

Elev 2628 ft 46.43 °N, 105.88 °W | Updated 8 minutes ago

Overcast
Overcast
53 °F
Feels Like 53 °F
N
0
Wind Variable Wind from North

Today
High -- | Low -- °F
--% Chance of Precip.
Yesterday
High -- | Low -- °F
Precip. -- in
7:31 AM 6:00 PM
New Moon, 2% visible
Pressure 30.10 in
Visibility 10.0 miles
Clouds Overcast 10000 ft
Dew Point 33 °F
Humidity 47%
Rainfall 0.00 in
Snow Depth Not available.
UV 0 out of 12
Pollen 1.80 out of 12
Air Quality Not available.
Flu Activity No Activity
METAR KMLS 250353Z AUTO 00000KT 10SM OVC100 12/01 A3009 RMK AO2 SLP192 T01170006

More Conditions Fewer Conditions

Pressure 30.10 in
Visibility 10.0 miles
Clouds Overcast 10000 ft
Dew Point 33 °F
Humidity 47%
Rainfall 0.00 in
Snow Depth Not available.
UV 0 out of 12
Pollen 1.80 out of 12
Air Quality Not available.
Flu Activity No Activity
METAR KMLS 250353Z AUTO 00000KT 10SM OVC100 12/01 A3009 RMK AO2 SLP192 T01170006

More Conditions Fewer Conditions

10-Day Weather Forecast

Almanac

Astronomy

Oct. 24, 2014 Rise Set
Actual Time 7:31 AM MDT 6:00 PM MDT
Civil Twilight 7:01 AM MDT 6:31 PM MDT
Nautical Twilight 6:26 AM MDT 7:06 PM MDT
Astronomical Twilight 5:51 AM MDT 7:40 PM MDT
Moon 8:15 AM MDT (10/24) 6:39 PM MDT (10/24)
Length of Visible Light 11h 30m
Length of Day
10h 28m
Tomorrow will be 3m 3s shorter.
New Moon, 2% of the Moon is Illuminated
Oct 25
New Moon
Oct 30
First Quarter
Nov 6
Full
Nov 14
Last Quarter
Nov 22
New

Today's Extremes

State Highs State Lows

Community

WunderPhotos

Upload Photos

1,764,772 photos uploaded!

Nearby

Snow Depth

Station Depth Elevation
Crystal Lake 1 in 6050 ft
Burnt Mountain 0 in 5880 ft
Fisher Creek 1 in 9100 ft
Northeast Entrance 0 in 7350 ft
Daisy Peak 0 in 7600 ft

Earthquake Activity

City Distance Mag. Time & Date
No recent earthquake activity has been reported nearby.
Minimum magnitude displayed is 2.5.

Coastal Water Temperatures

Place Temperature
No Stations Reporting

Nearby Weather Stations